createdAt,value
2023-03-20T00:02:07.696Z,100.00
2023-03-20T00:04:35.755Z,100.00
2023-03-20T00:07:03.846Z,100.00
2023-03-20T00:09:32.970Z,100.00
2023-03-20T00:12:01.671Z,100.00
2023-03-20T00:14:29.673Z,100.00
2023-03-20T00:16:57.702Z,100.00
2023-03-20T00:19:29.354Z,100.00
2023-03-20T00:21:57.599Z,100.00
2023-03-20T00:24:26.328Z,100.00
2023-03-20T00:26:55.226Z,100.00
2023-03-20T00:29:25.190Z,100.00
2023-03-20T00:31:53.933Z,100.00
2023-03-20T00:34:25.737Z,100.00
2023-03-20T00:36:56.304Z,100.00
2023-03-20T00:39:24.923Z,100.00
2023-03-20T00:41:55.237Z,100.00
2023-03-20T00:44:26.291Z,100.00
2023-03-20T00:46:56.736Z,100.00
2023-03-20T00:49:28.885Z,100.00
2023-03-20T00:51:58.795Z,100.00
2023-03-20T00:54:26.931Z,100.00
2023-03-20T00:56:59.082Z,100.00
2023-03-20T00:59:31.468Z,100.00
2023-03-20T01:01:59.974Z,100.00
2023-03-20T01:04:32.690Z,100.00
2023-03-20T01:07:01.930Z,100.00
2023-03-20T01:09:29.762Z,99.75
2023-03-20T01:11:57.897Z,100.00
2023-03-20T01:14:26.540Z,100.00
2023-03-20T01:16:54.575Z,100.00
2023-03-20T01:19:22.810Z,100.00
2023-03-20T01:21:50.694Z,100.00
2023-03-20T01:24:19.943Z,100.00
2023-03-20T01:26:47.908Z,100.00
2023-03-20T01:29:20.574Z,100.00
2023-03-20T01:31:49.785Z,98.33
2023-03-20T01:34:19.861Z,98.53
2023-03-20T01:36:51.717Z,97.31
2023-03-20T01:39:24.339Z,96.55
2023-03-20T01:41:54.260Z,97.75
2023-03-20T01:44:26.082Z,96.61
2023-03-20T01:46:58.847Z,95.50
2023-03-20T01:50:04.203Z,95.08
2023-03-20T01:52:32.097Z,96.87
2023-03-20T01:55:03.967Z,97.23
2023-03-20T01:57:32.147Z,96.31
2023-03-20T02:00:04.623Z,95.93
2023-03-20T02:02:45.234Z,95.27
2023-03-20T02:05:20.139Z,95.52
2023-03-20T02:07:55.595Z,95.20
2023-03-20T02:10:26.837Z,95.42
2023-03-20T02:13:05.533Z,95.39
2023-03-20T02:15:57.699Z,95.26
2023-03-20T02:18:52.057Z,96.59
2023-03-20T02:22:01.352Z,97.35
2023-03-20T02:24:57.423Z,95.62
2023-03-20T02:27:38.640Z,95.52
2023-03-20T02:30:44.190Z,96.55
2023-03-20T02:34:03.922Z,97.62
2023-03-20T02:37:05.762Z,97.76
2023-03-20T02:39:57.362Z,97.33
2023-03-20T02:42:36.180Z,97.26
2023-03-20T02:45:15.918Z,97.34
2023-03-20T02:47:53.691Z,97.58
2023-03-20T02:50:33.083Z,98.18
2023-03-20T02:53:12.894Z,97.74
2023-03-20T02:55:47.389Z,97.45
2023-03-20T02:58:18.706Z,97.73
2023-03-20T03:00:52.235Z,97.58
2023-03-20T03:03:23.496Z,97.18
2023-03-20T03:05:57.091Z,97.59
2023-03-20T03:08:29.622Z,96.77
2023-03-20T03:11:04.385Z,97.01
2023-03-20T03:13:37.399Z,97.21
2023-03-20T03:16:09.941Z,96.42
2023-03-20T03:18:39.531Z,96.31
2023-03-20T03:21:10.316Z,95.95
2023-03-20T03:23:44.611Z,95.34
2023-03-20T03:26:19.727Z,95.54
2023-03-20T03:28:51.152Z,96.36
2023-03-20T03:31:20.630Z,97.95
2023-03-20T03:33:52.764Z,96.89
2023-03-20T03:36:28.346Z,97.93
2023-03-20T03:39:02.885Z,98.03
2023-03-20T03:41:39.119Z,97.58
2023-03-20T03:44:13.212Z,97.79
2023-03-20T03:46:46.958Z,97.90
2023-03-20T03:49:19.870Z,98.17
2023-03-20T03:51:52.076Z,97.99
2023-03-20T03:54:23.604Z,98.82
2023-03-20T03:57:21.516Z,98.70
2023-03-20T03:59:52.734Z,98.25
2023-03-20T04:02:23.383Z,98.51
2023-03-20T04:04:54.717Z,98.34
2023-03-20T04:07:22.626Z,97.47
2023-03-20T04:09:50.521Z,98.13
2023-03-20T04:12:33.878Z,98.61
2023-03-20T04:15:03.521Z,98.49
2023-03-20T04:17:33.545Z,98.71
2023-03-20T04:20:01.829Z,98.94
2023-03-20T04:22:29.690Z,98.48
2023-03-20T04:25:04.932Z,98.92
2023-03-20T04:27:34.162Z,97.88
2023-03-20T04:30:05.154Z,97.52
2023-03-20T04:32:58.862Z,97.76
2023-03-20T04:35:41.898Z,97.26
2023-03-20T04:38:14.013Z,98.38
2023-03-20T04:40:42.429Z,97.09
2023-03-20T04:43:11.594Z,98.26
2023-03-20T04:45:39.952Z,98.18
2023-03-20T04:48:09.384Z,97.75
2023-03-20T04:50:37.926Z,97.91
2023-03-20T04:53:06.395Z,97.94
2023-03-20T04:55:34.567Z,97.26
2023-03-20T04:58:02.494Z,96.87
2023-03-20T05:00:32.830Z,96.63
2023-03-20T05:03:01.535Z,97.37
2023-03-20T05:05:30.529Z,97.54
2023-03-20T05:07:58.775Z,97.01
2023-03-20T05:10:33.954Z,96.11
2023-03-20T05:13:08.355Z,96.16
2023-03-20T05:15:55.604Z,95.98
2023-03-20T05:18:40.130Z,96.71
2023-03-20T05:21:41.884Z,97.04
2023-03-20T05:24:32.528Z,96.56
2023-03-20T05:27:27.632Z,96.51
2023-03-20T05:30:09.013Z,97.53
2023-03-20T05:32:58.540Z,97.93
2023-03-20T05:35:29.529Z,97.26
2023-03-20T05:38:04.509Z,97.06
2023-03-20T05:40:42.911Z,99.35
2023-03-20T05:43:33.557Z,98.24
2023-03-20T05:46:19.450Z,99.05
2023-03-20T05:49:02.495Z,98.74
2023-03-20T05:51:50.613Z,97.75
2023-03-20T05:54:28.858Z,97.69
2023-03-20T05:57:09.068Z,97.24
2023-03-20T05:59:54.870Z,98.24
2023-03-20T06:02:38.144Z,97.63
2023-03-20T06:05:22.462Z,95.93
2023-03-20T06:07:53.085Z,97.17
2023-03-20T06:10:21.214Z,96.69
2023-03-20T06:12:51.181Z,97.03
2023-03-20T06:15:25.222Z,96.25
2023-03-20T06:18:00.453Z,96.79
2023-03-20T06:20:30.442Z,97.11
2023-03-20T06:22:59.095Z,97.35
2023-03-20T06:25:27.055Z,97.10
2023-03-20T06:27:55.026Z,96.37
2023-03-20T06:30:23.866Z,96.80
2023-03-20T06:32:52.874Z,96.73
2023-03-20T06:35:22.707Z,96.22
2023-03-20T06:37:53.429Z,96.21
2023-03-20T06:40:25.539Z,96.79
2023-03-20T06:42:53.505Z,95.56
2023-03-20T06:45:23.346Z,95.86
2023-03-20T06:47:54.272Z,95.70
2023-03-20T06:50:23.430Z,94.25
2023-03-20T06:52:53.011Z,94.88
2023-03-20T06:55:48.819Z,95.65
2023-03-20T06:58:17.385Z,95.31
2023-03-20T07:00:46.718Z,94.61
2023-03-20T07:03:15.761Z,94.08
2023-03-20T07:05:46.623Z,93.30
2023-03-20T07:08:16.203Z,92.90
2023-03-20T07:10:44.199Z,92.66
2023-03-20T07:13:14.386Z,92.55
2023-03-20T07:16:01.119Z,91.29
2023-03-20T07:18:31.234Z,91.67
2023-03-20T07:21:02.484Z,91.75
2023-03-20T07:23:34.436Z,91.29
2023-03-20T07:26:03.440Z,91.62
2023-03-20T07:28:31.578Z,91.10
2023-03-20T07:31:21.196Z,90.79
2023-03-20T07:33:52.852Z,90.34
2023-03-20T07:36:22.330Z,89.36
2023-03-20T07:38:51.956Z,90.04
2023-03-20T07:41:20.375Z,90.87
2023-03-20T07:43:58.922Z,89.97
2023-03-20T07:46:52.983Z,90.62
2023-03-20T07:49:23.990Z,90.87
2023-03-20T07:51:52.417Z,90.43
2023-03-20T07:54:21.871Z,88.04
2023-03-20T07:56:51.002Z,87.36
2023-03-20T07:59:19.971Z,87.99
2023-03-20T08:01:47.808Z,87.62
2023-03-20T08:04:19.626Z,86.51
2023-03-20T08:06:47.736Z,86.87
2023-03-20T08:09:16.267Z,86.56
2023-03-20T08:11:46.131Z,86.41
2023-03-20T08:14:14.201Z,86.83
2023-03-20T08:16:42.115Z,85.48
2023-03-20T08:19:10.097Z,84.20
2023-03-20T08:21:37.973Z,84.73
2023-03-20T08:24:06.336Z,84.08
2023-03-20T08:26:34.270Z,84.28
2023-03-20T08:29:03.645Z,83.55
2023-03-20T08:31:31.577Z,84.62
2023-03-20T08:33:59.990Z,83.64
2023-03-20T08:36:27.967Z,84.84
2023-03-20T08:38:56.199Z,83.62
2023-03-20T08:41:24.120Z,83.63
2023-03-20T08:43:51.935Z,82.81
2023-03-20T08:46:21.145Z,83.25
2023-03-20T08:48:49.130Z,83.08
2023-03-20T08:51:17.030Z,81.74
2023-03-20T08:53:44.846Z,81.74
2023-03-20T08:56:12.850Z,81.90
2023-03-20T08:58:40.790Z,81.89
2023-03-20T09:01:10.372Z,80.37
2023-03-20T09:03:39.733Z,81.72
2023-03-20T09:06:09.258Z,82.56
2023-03-20T09:08:37.143Z,81.98
2023-03-20T09:11:05.926Z,81.23
2023-03-20T09:13:33.893Z,81.09
2023-03-20T09:16:01.904Z,81.05
2023-03-20T09:18:30.179Z,80.68
2023-03-20T09:20:59.941Z,81.96
2023-03-20T09:23:28.228Z,80.69
2023-03-20T09:25:56.518Z,79.70
2023-03-20T09:28:24.975Z,80.09
2023-03-20T09:30:57.100Z,80.43
2023-03-20T09:33:25.558Z,80.50
2023-03-20T09:35:54.174Z,80.33
2023-03-20T09:38:24.370Z,79.66
2023-03-20T09:40:55.240Z,79.65
2023-03-20T09:43:48.488Z,79.15
2023-03-20T09:46:33.623Z,77.44
2023-03-20T09:49:08.777Z,79.44
2023-03-20T09:51:41.863Z,78.50
2023-03-20T09:54:18.365Z,77.39
2023-03-20T09:56:46.727Z,76.56
2023-03-20T09:59:17.349Z,76.62
2023-03-20T10:01:49.902Z,74.55
2023-03-20T10:04:17.961Z,74.31
2023-03-20T10:06:46.687Z,76.22
2023-03-20T10:09:23.966Z,73.01
2023-03-20T10:12:08.286Z,73.53
2023-03-20T10:14:44.632Z,73.15
2023-03-20T10:17:30.522Z,73.73
2023-03-20T10:20:03.363Z,73.41
2023-03-20T10:22:36.158Z,74.07
2023-03-20T10:25:17.037Z,74.36
2023-03-20T10:27:50.266Z,74.20
2023-03-20T10:30:31.289Z,73.93
2023-03-20T10:33:12.920Z,73.74
2023-03-20T10:35:50.709Z,73.85
2023-03-20T10:38:28.113Z,73.46
2023-03-20T10:40:59.204Z,73.53
2023-03-20T10:43:32.857Z,74.33
2023-03-20T10:46:06.106Z,74.31
2023-03-20T10:48:38.853Z,73.72
2023-03-20T10:51:14.630Z,73.58
2023-03-20T10:53:47.917Z,72.72
2023-03-20T10:56:27.972Z,73.53
2023-03-20T10:59:00.741Z,74.03
2023-03-20T11:01:28.648Z,73.46
2023-03-20T11:03:56.592Z,73.91
2023-03-20T11:06:28.736Z,72.81
2023-03-20T11:08:56.600Z,72.16
2023-03-20T11:11:28.251Z,72.08
2023-03-20T11:13:57.061Z,71.18
2023-03-20T11:16:27.498Z,72.16
2023-03-20T11:18:55.387Z,72.22
2023-03-20T11:21:26.065Z,71.89
2023-03-20T11:23:55.426Z,72.03
2023-03-20T11:26:37.004Z,72.82
2023-03-20T11:29:07.944Z,71.57
2023-03-20T11:31:38.089Z,71.94
2023-03-20T11:34:27.805Z,72.46
2023-03-20T11:37:09.689Z,71.10
2023-03-20T11:39:40.078Z,70.69
2023-03-20T11:42:24.170Z,70.05
2023-03-20T11:45:00.272Z,69.99
2023-03-20T11:47:31.010Z,68.96
2023-03-20T11:50:01.720Z,68.69
2023-03-20T11:52:32.892Z,68.70
2023-03-20T11:55:03.329Z,68.61
2023-03-20T11:57:36.077Z,67.67
2023-03-20T12:00:08.740Z,68.88
2023-03-20T12:02:37.431Z,70.18
2023-03-20T12:05:29.853Z,69.92
2023-03-20T12:08:01.135Z,69.06
2023-03-20T12:10:37.321Z,70.24
2023-03-20T12:13:16.044Z,70.07
2023-03-20T12:15:48.691Z,69.42
2023-03-20T12:18:23.234Z,69.02
2023-03-20T12:21:03.977Z,69.61
2023-03-20T12:23:35.733Z,69.91
2023-03-20T12:26:07.228Z,69.68
2023-03-20T12:28:41.783Z,69.50
2023-03-20T12:31:21.649Z,70.44
2023-03-20T12:33:55.897Z,70.68
2023-03-20T12:36:31.316Z,70.98
2023-03-20T12:38:59.617Z,69.58
2023-03-20T12:41:31.584Z,70.16
2023-03-20T12:44:25.626Z,68.10
2023-03-20T12:47:06.996Z,67.78
2023-03-20T12:49:45.116Z,66.87
2023-03-20T12:52:22.294Z,67.62
2023-03-20T12:55:06.124Z,68.35
2023-03-20T12:57:41.533Z,67.48
2023-03-20T13:00:24.081Z,67.86
2023-03-20T13:03:02.954Z,66.62
2023-03-20T13:05:41.421Z,68.53
2023-03-20T13:08:34.278Z,67.73
2023-03-20T13:11:10.484Z,67.41
2023-03-20T13:13:46.481Z,66.71
2023-03-20T13:16:23.301Z,67.04
2023-03-20T13:18:59.089Z,67.08
2023-03-20T13:21:36.101Z,66.54
2023-03-20T13:24:23.696Z,66.58
2023-03-20T13:26:59.320Z,65.71
2023-03-20T13:29:35.465Z,65.29
2023-03-20T13:32:12.769Z,66.05
2023-03-20T13:34:58.206Z,64.99
2023-03-20T13:37:33.325Z,62.63
2023-03-20T13:40:06.970Z,63.03
2023-03-20T13:42:39.706Z,64.09
2023-03-20T13:45:24.732Z,63.58
2023-03-20T13:47:54.870Z,63.32
2023-03-20T13:50:33.924Z,63.16
2023-03-20T13:53:07.421Z,62.74
2023-03-20T13:55:44.172Z,61.24
2023-03-20T13:58:31.669Z,61.03
2023-03-20T14:01:07.032Z,60.78
2023-03-20T14:03:38.883Z,60.52
2023-03-20T14:06:19.011Z,60.13
2023-03-20T14:08:50.154Z,59.42
2023-03-20T14:11:35.570Z,58.00
2023-03-20T14:14:14.065Z,59.00
2023-03-20T14:16:43.094Z,58.81
2023-03-20T14:19:20.718Z,59.23
2023-03-20T14:21:50.240Z,58.43
2023-03-20T14:24:20.402Z,58.43
2023-03-20T14:26:51.214Z,57.86
2023-03-20T14:29:43.060Z,57.55
2023-03-20T14:32:36.590Z,57.03
2023-03-20T14:35:26.038Z,57.43
2023-03-20T14:38:10.709Z,57.90
2023-03-20T14:40:44.677Z,57.21
2023-03-20T14:43:22.064Z,57.91
2023-03-20T14:45:55.620Z,58.19
2023-03-20T14:48:32.603Z,56.62
2023-03-20T14:51:19.929Z,56.65
2023-03-20T14:53:54.730Z,57.79
2023-03-20T14:56:30.265Z,57.09
2023-03-20T14:59:02.585Z,58.25
2023-03-20T15:01:47.772Z,59.00
2023-03-20T15:04:29.677Z,58.80
2023-03-20T15:07:01.969Z,58.92
2023-03-20T15:09:32.268Z,59.34
2023-03-20T15:12:04.370Z,59.28
2023-03-20T15:14:41.602Z,59.48
2023-03-20T15:17:18.406Z,59.10
2023-03-20T15:19:46.253Z,59.23
2023-03-20T15:22:18.928Z,59.51
2023-03-20T15:24:53.781Z,59.21
2023-03-20T15:27:22.660Z,59.34
2023-03-20T15:29:53.588Z,60.14
2023-03-20T15:32:22.077Z,60.59
2023-03-20T15:34:52.139Z,60.94
2023-03-20T15:37:25.244Z,60.25
2023-03-20T15:39:56.225Z,60.92
2023-03-20T15:42:27.595Z,61.18
2023-03-20T15:44:56.843Z,60.99
2023-03-20T15:47:26.261Z,60.21
2023-03-20T15:49:56.419Z,61.02
2023-03-20T15:52:32.814Z,60.04
2023-03-20T15:55:04.007Z,60.41
2023-03-20T15:57:35.934Z,60.76
2023-03-20T16:00:07.448Z,59.44
2023-03-20T16:02:37.838Z,60.97
2023-03-20T16:05:10.234Z,61.26
2023-03-20T16:07:39.610Z,60.25
2023-03-20T16:10:18.378Z,61.72
2023-03-20T16:12:51.421Z,60.75
2023-03-20T16:15:20.391Z,59.51
2023-03-20T16:17:50.326Z,59.64
2023-03-20T16:20:19.459Z,60.15
2023-03-20T16:22:50.238Z,59.27
2023-03-20T16:25:19.972Z,59.33
2023-03-20T16:27:51.063Z,59.98
2023-03-20T16:30:22.381Z,59.70
2023-03-20T16:32:57.372Z,59.71
2023-03-20T16:35:28.455Z,60.01
2023-03-20T16:37:59.559Z,59.95
2023-03-20T16:40:32.774Z,60.20
2023-03-20T16:43:08.230Z,60.64
2023-03-20T16:45:37.265Z,60.28
2023-03-20T16:48:31.798Z,60.99
2023-03-20T16:51:04.088Z,61.26
2023-03-20T16:53:43.269Z,62.06
2023-03-20T16:56:14.335Z,62.19
2023-03-20T16:58:44.248Z,62.10
2023-03-20T17:01:17.969Z,62.92
2023-03-20T17:03:50.665Z,63.30
2023-03-20T17:06:45.830Z,63.54
2023-03-20T17:09:21.981Z,63.94
2023-03-20T17:11:51.671Z,64.75
2023-03-20T17:14:19.511Z,65.02
2023-03-20T17:16:47.403Z,64.70
2023-03-20T17:19:17.601Z,64.14
2023-03-20T17:21:47.138Z,64.87
2023-03-20T17:24:16.665Z,64.47
2023-03-20T17:26:52.125Z,65.03
2023-03-20T17:29:20.115Z,64.92
2023-03-20T17:31:48.108Z,64.34
2023-03-20T17:34:15.988Z,64.88
2023-03-20T17:36:45.453Z,64.73
2023-03-20T17:39:19.983Z,65.04
2023-03-20T17:41:49.525Z,65.54
2023-03-20T17:44:17.389Z,65.41
2023-03-20T17:46:57.417Z,65.42
2023-03-20T17:49:28.005Z,65.40
2023-03-20T17:51:56.147Z,66.00
2023-03-20T17:54:24.013Z,66.63
2023-03-20T17:56:53.266Z,66.91
2023-03-20T17:59:21.133Z,67.35
2023-03-20T18:01:49.231Z,67.41
2023-03-20T18:04:17.146Z,67.69
2023-03-20T18:06:46.108Z,67.87
2023-03-20T18:09:16.130Z,69.02
2023-03-20T18:11:44.576Z,68.87
2023-03-20T18:14:17.818Z,69.11
2023-03-20T18:16:45.795Z,69.37
2023-03-20T18:19:21.784Z,70.38
2023-03-20T18:21:49.774Z,71.46
2023-03-20T18:24:17.771Z,70.86
2023-03-20T18:26:47.323Z,70.11
2023-03-20T18:29:16.768Z,71.74
2023-03-20T18:31:44.881Z,70.61
2023-03-20T18:34:13.165Z,70.93
2023-03-20T18:36:45.714Z,72.52
2023-03-20T18:39:18.803Z,71.92
2023-03-20T18:41:47.027Z,70.97
2023-03-20T18:44:17.035Z,71.23
2023-03-20T18:46:44.937Z,71.30
2023-03-20T18:49:16.597Z,71.32
2023-03-20T18:51:44.511Z,72.67
2023-03-20T18:54:14.205Z,74.04
2023-03-20T18:56:43.924Z,71.61
2023-03-20T18:59:13.838Z,71.96
2023-03-20T19:01:43.174Z,71.87
2023-03-20T19:04:11.306Z,73.33
2023-03-20T19:06:39.217Z,73.29
2023-03-20T19:09:11.405Z,72.79
2023-03-20T19:11:39.697Z,73.80
2023-03-20T19:14:07.549Z,74.09
2023-03-20T19:16:38.622Z,72.93
2023-03-20T19:19:09.918Z,72.89
2023-03-20T19:21:37.876Z,72.88
2023-03-20T19:24:08.488Z,74.39
2023-03-20T19:26:38.757Z,73.62
2023-03-20T19:29:10.410Z,73.71
2023-03-20T19:31:39.640Z,73.77
2023-03-20T19:34:28.063Z,73.91
2023-03-20T19:36:58.916Z,72.30
2023-03-20T19:39:28.003Z,72.36
2023-03-20T19:42:02.828Z,72.58
2023-03-20T19:44:39.895Z,71.98
2023-03-20T19:47:07.715Z,73.45
2023-03-20T19:49:37.038Z,74.14
2023-03-20T19:52:07.027Z,72.52
2023-03-20T19:54:34.905Z,74.67
2023-03-20T19:57:03.134Z,72.94
2023-03-20T19:59:32.756Z,74.78
2023-03-20T20:02:00.947Z,76.01
2023-03-20T20:04:29.246Z,75.25
2023-03-20T20:07:26.688Z,75.92
2023-03-20T20:09:46.846Z,75.70
2023-03-20T20:12:14.774Z,76.12
2023-03-20T20:14:44.060Z,76.95
2023-03-20T20:17:12.147Z,75.68
2023-03-20T20:19:41.143Z,75.39
2023-03-20T20:22:24.819Z,74.39
2023-03-20T20:24:53.800Z,76.83
2023-03-20T20:27:21.981Z,77.02
2023-03-20T20:29:51.270Z,76.46
2023-03-20T20:32:21.836Z,76.93
2023-03-20T20:35:35.016Z,77.45
2023-03-20T20:40:31.450Z,77.13
2023-03-20T20:43:02.035Z,77.00
2023-03-20T20:45:31.608Z,77.33
2023-03-20T20:48:00.884Z,77.03
2023-03-20T20:50:32.921Z,78.54
2023-03-20T20:53:02.294Z,76.85
2023-03-20T20:55:30.663Z,78.97
2023-03-20T20:58:01.358Z,77.00
2023-03-20T21:00:47.529Z,77.25
2023-03-20T21:03:16.685Z,78.87
2023-03-20T21:05:44.564Z,79.69
2023-03-20T21:08:14.440Z,78.42
2023-03-20T21:10:42.600Z,79.37
2023-03-20T21:13:10.586Z,79.03
2023-03-20T21:15:39.669Z,79.38
2023-03-20T21:18:08.056Z,79.28
2023-03-20T21:20:36.078Z,79.77
2023-03-20T21:23:04.152Z,79.45
2023-03-20T21:25:44.794Z,79.86
2023-03-20T21:28:13.964Z,80.73
2023-03-20T21:30:59.943Z,79.97
2023-03-20T21:33:31.439Z,79.63
2023-03-20T21:35:59.519Z,79.26
2023-03-20T21:39:02.082Z,79.62
2023-03-20T21:41:17.267Z,80.40
2023-03-20T21:43:47.289Z,78.19
2023-03-20T21:52:41.880Z,76.47
2023-03-20T21:58:04.334Z,76.02
2023-03-20T22:01:09.666Z,77.45
2023-03-20T22:03:10.919Z,77.87
2023-03-20T22:06:14.425Z,76.24
2023-03-20T22:10:11.084Z,77.07
2023-03-20T22:17:45.620Z,77.02
2023-03-20T22:23:28.653Z,76.72
2023-03-20T22:26:04.805Z,76.81
2023-03-20T22:28:49.873Z,76.66
2023-03-20T22:40:21.647Z,76.77
2023-03-20T22:45:03.279Z,75.02
2023-03-20T22:47:33.388Z,75.20
2023-03-20T22:50:01.472Z,75.77
2023-03-20T22:52:41.988Z,75.83
2023-03-20T22:55:16.638Z,75.55
2023-03-20T22:57:56.144Z,75.07
2023-03-20T23:00:31.713Z,75.59
2023-03-20T23:03:15.272Z,74.85
2023-03-20T23:05:45.800Z,75.14
2023-03-20T23:08:13.734Z,75.29
2023-03-20T23:10:43.739Z,74.58
2023-03-20T23:13:12.486Z,74.91
2023-03-20T23:15:40.718Z,75.35
2023-03-20T23:18:11.389Z,75.17
2023-03-20T23:20:39.397Z,75.54
2023-03-20T23:23:07.354Z,75.73
2023-03-20T23:25:39.808Z,75.27
2023-03-20T23:28:09.046Z,74.93
2023-03-20T23:30:46.762Z,76.05
2023-03-20T23:33:21.141Z,75.43
2023-03-20T23:35:51.223Z,75.20
2023-03-20T23:38:19.215Z,75.04
2023-03-20T23:40:50.078Z,74.78
2023-03-20T23:43:19.044Z,75.20
2023-03-20T23:45:47.859Z,75.47
2023-03-20T23:48:15.954Z,75.64
2023-03-20T23:50:52.850Z,75.03
2023-03-20T23:53:21.544Z,75.57
2023-03-20T23:55:51.020Z,75.67
2023-03-20T23:58:20.189Z,76.20
